sensor_id;sensor_type;location;lat;lon;timestamp;temperature;humidity
13328;DHT22;6733;51.044;3.746;2023-07-31T00:00:44;17.80;99.90
13328;DHT22;6733;51.044;3.746;2023-07-31T00:03:12;17.80;99.90
13328;DHT22;6733;51.044;3.746;2023-07-31T00:05:38;17.80;99.90
13328;DHT22;6733;51.044;3.746;2023-07-31T00:08:04;17.80;99.90
13328;DHT22;6733;51.044;3.746;2023-07-31T00:10:30;17.80;99.90
13328;DHT22;6733;51.044;3.746;2023-07-31T00:12:56;17.80;99.90
13328;DHT22;6733;51.044;3.746;2023-07-31T00:15:23;17.80;99.90
13328;DHT22;6733;51.044;3.746;2023-07-31T00:17:49;17.80;99.90
13328;DHT22;6733;51.044;3.746;2023-07-31T00:20:15;17.80;99.90
13328;DHT22;6733;51.044;3.746;2023-07-31T00:22:41;17.80;99.90
13328;DHT22;6733;51.044;3.746;2023-07-31T00:25:07;17.80;99.90
13328;DHT22;6733;51.044;3.746;2023-07-31T00:27:34;17.80;99.90
13328;DHT22;6733;51.044;3.746;2023-07-31T00:30:00;17.80;99.90
13328;DHT22;6733;51.044;3.746;2023-07-31T00:32:26;17.80;99.90
13328;DHT22;6733;51.044;3.746;2023-07-31T00:34:52;17.80;99.90
13328;DHT22;6733;51.044;3.746;2023-07-31T00:37:18;17.80;99.90
13328;DHT22;6733;51.044;3.746;2023-07-31T00:39:44;17.80;99.90
13328;DHT22;6733;51.044;3.746;2023-07-31T00:42:11;17.80;99.90
13328;DHT22;6733;51.044;3.746;2023-07-31T00:44:37;17.80;99.90
13328;DHT22;6733;51.044;3.746;2023-07-31T00:47:03;17.80;99.90
13328;DHT22;6733;51.044;3.746;2023-07-31T00:49:29;17.80;99.90
13328;DHT22;6733;51.044;3.746;2023-07-31T00:51:56;17.80;99.90
13328;DHT22;6733;51.044;3.746;2023-07-31T00:54:23;17.80;99.90
13328;DHT22;6733;51.044;3.746;2023-07-31T00:56:50;17.80;99.90
13328;DHT22;6733;51.044;3.746;2023-07-31T00:59:18;17.80;99.90
13328;DHT22;6733;51.044;3.746;2023-07-31T01:01:45;17.80;99.90
13328;DHT22;6733;51.044;3.746;2023-07-31T01:04:12;17.80;99.90
13328;DHT22;6733;51.044;3.746;2023-07-31T01:09:33;17.90;99.90
13328;DHT22;6733;51.044;3.746;2023-07-31T01:12:02;17.90;99.90
13328;DHT22;6733;51.044;3.746;2023-07-31T01:14:29;17.90;99.90
13328;DHT22;6733;51.044;3.746;2023-07-31T01:16:55;17.90;99.90
13328;DHT22;6733;51.044;3.746;2023-07-31T01:19:23;17.90;99.90
13328;DHT22;6733;51.044;3.746;2023-07-31T01:25:32;17.90;99.90
13328;DHT22;6733;51.044;3.746;2023-07-31T01:27:35;17.90;99.90
13328;DHT22;6733;51.044;3.746;2023-07-31T01:30:10;17.90;99.90
13328;DHT22;6733;51.044;3.746;2023-07-31T01:32:41;18.00;99.90
13328;DHT22;6733;51.044;3.746;2023-07-31T01:35:08;18.00;99.90
13328;DHT22;6733;51.044;3.746;2023-07-31T01:37:35;17.90;99.90
13328;DHT22;6733;51.044;3.746;2023-07-31T01:40:01;18.00;99.90
13328;DHT22;6733;51.044;3.746;2023-07-31T01:42:28;18.00;99.90
13328;DHT22;6733;51.044;3.746;2023-07-31T01:44:54;18.00;99.90
13328;DHT22;6733;51.044;3.746;2023-07-31T01:47:20;18.00;99.90
13328;DHT22;6733;51.044;3.746;2023-07-31T01:49:46;18.00;99.90
13328;DHT22;6733;51.044;3.746;2023-07-31T01:52:12;18.00;99.90
13328;DHT22;6733;51.044;3.746;2023-07-31T01:54:38;18.00;99.90
13328;DHT22;6733;51.044;3.746;2023-07-31T01:57:05;18.00;99.90
13328;DHT22;6733;51.044;3.746;2023-07-31T01:59:31;18.00;99.90
13328;DHT22;6733;51.044;3.746;2023-07-31T02:01:57;18.00;99.90
13328;DHT22;6733;51.044;3.746;2023-07-31T02:04:23;18.10;99.90
13328;DHT22;6733;51.044;3.746;2023-07-31T02:06:49;18.00;99.90
13328;DHT22;6733;51.044;3.746;2023-07-31T02:09:16;18.00;99.90
13328;DHT22;6733;51.044;3.746;2023-07-31T02:11:42;18.10;99.90
13328;DHT22;6733;51.044;3.746;2023-07-31T02:14:08;18.10;99.90
13328;DHT22;6733;51.044;3.746;2023-07-31T02:16:34;18.10;99.90
13328;DHT22;6733;51.044;3.746;2023-07-31T02:19:00;18.10;99.90
13328;DHT22;6733;51.044;3.746;2023-07-31T02:21:26;18.10;99.90
13328;DHT22;6733;51.044;3.746;2023-07-31T02:23:54;18.10;99.90
13328;DHT22;6733;51.044;3.746;2023-07-31T02:26:20;18.10;99.90
13328;DHT22;6733;51.044;3.746;2023-07-31T02:28:46;18.20;99.90
13328;DHT22;6733;51.044;3.746;2023-07-31T02:31:12;18.20;99.90
13328;DHT22;6733;51.044;3.746;2023-07-31T02:33:38;18.20;99.90
13328;DHT22;6733;51.044;3.746;2023-07-31T02:36:29;18.20;99.90
13328;DHT22;6733;51.044;3.746;2023-07-31T02:39:20;18.20;99.90
13328;DHT22;6733;51.044;3.746;2023-07-31T02:42:13;18.20;99.90
13328;DHT22;6733;51.044;3.746;2023-07-31T02:45:04;18.20;99.90
13328;DHT22;6733;51.044;3.746;2023-07-31T02:47:55;18.30;99.90
13328;DHT22;6733;51.044;3.746;2023-07-31T02:50:47;18.30;99.90
13328;DHT22;6733;51.044;3.746;2023-07-31T02:53:39;18.30;99.90
13328;DHT22;6733;51.044;3.746;2023-07-31T02:56:29;18.40;99.90
13328;DHT22;6733;51.044;3.746;2023-07-31T02:59:21;18.30;99.90
13328;DHT22;6733;51.044;3.746;2023-07-31T03:01:47;18.30;99.90
13328;DHT22;6733;51.044;3.746;2023-07-31T03:04:13;18.30;99.90
13328;DHT22;6733;51.044;3.746;2023-07-31T03:06:39;18.30;99.90
13328;DHT22;6733;51.044;3.746;2023-07-31T03:09:06;18.30;99.90
13328;DHT22;6733;51.044;3.746;2023-07-31T03:11:32;18.30;99.90
13328;DHT22;6733;51.044;3.746;2023-07-31T03:13:58;18.30;99.90
13328;DHT22;6733;51.044;3.746;2023-07-31T03:16:24;18.20;99.90
13328;DHT22;6733;51.044;3.746;2023-07-31T03:18:50;18.20;99.90
13328;DHT22;6733;51.044;3.746;2023-07-31T03:21:16;18.20;99.90
13328;DHT22;6733;51.044;3.746;2023-07-31T03:23:43;18.20;99.90
13328;DHT22;6733;51.044;3.746;2023-07-31T03:26:09;18.20;99.90
13328;DHT22;6733;51.044;3.746;2023-07-31T03:28:35;18.20;99.90
13328;DHT22;6733;51.044;3.746;2023-07-31T03:31:02;18.20;99.90
13328;DHT22;6733;51.044;3.746;2023-07-31T03:33:28;18.10;99.90
13328;DHT22;6733;51.044;3.746;2023-07-31T03:35:54;18.10;99.90
13328;DHT22;6733;51.044;3.746;2023-07-31T03:38:20;18.10;99.90
13328;DHT22;6733;51.044;3.746;2023-07-31T03:40:46;18.10;99.90
13328;DHT22;6733;51.044;3.746;2023-07-31T03:43:13;18.00;99.90
13328;DHT22;6733;51.044;3.746;2023-07-31T03:45:39;18.00;99.90
13328;DHT22;6733;51.044;3.746;2023-07-31T03:48:05;18.00;99.90
13328;DHT22;6733;51.044;3.746;2023-07-31T03:50:31;18.00;99.90
13328;DHT22;6733;51.044;3.746;2023-07-31T03:52:57;18.00;99.90
13328;DHT22;6733;51.044;3.746;2023-07-31T03:55:23;18.00;99.90
13328;DHT22;6733;51.044;3.746;2023-07-31T03:57:49;18.00;99.90
13328;DHT22;6733;51.044;3.746;2023-07-31T04:00:16;18.00;99.90
13328;DHT22;6733;51.044;3.746;2023-07-31T04:02:42;18.00;99.90
13328;DHT22;6733;51.044;3.746;2023-07-31T04:05:08;18.00;99.90
13328;DHT22;6733;51.044;3.746;2023-07-31T04:07:35;18.00;99.90
13328;DHT22;6733;51.044;3.746;2023-07-31T04:10:01;18.00;99.90
13328;DHT22;6733;51.044;3.746;2023-07-31T04:12:27;18.00;99.90
13328;DHT22;6733;51.044;3.746;2023-07-31T04:14:54;18.00;99.90
13328;DHT22;6733;51.044;3.746;2023-07-31T04:17:20;18.00;99.90
13328;DHT22;6733;51.044;3.746;2023-07-31T04:19:46;18.00;99.90
13328;DHT22;6733;51.044;3.746;2023-07-31T04:22:12;18.00;99.90
13328;DHT22;6733;51.044;3.746;2023-07-31T04:24:38;18.00;99.90
13328;DHT22;6733;51.044;3.746;2023-07-31T04:27:05;18.00;99.90
13328;DHT22;6733;51.044;3.746;2023-07-31T04:29:31;18.00;99.90
13328;DHT22;6733;51.044;3.746;2023-07-31T04:31:57;17.90;99.90
13328;DHT22;6733;51.044;3.746;2023-07-31T04:34:24;17.90;99.90
13328;DHT22;6733;51.044;3.746;2023-07-31T04:36:50;17.90;99.90
13328;DHT22;6733;51.044;3.746;2023-07-31T04:39:16;17.90;99.90
13328;DHT22;6733;51.044;3.746;2023-07-31T04:41:42;17.90;99.90
13328;DHT22;6733;51.044;3.746;2023-07-31T04:44:08;17.90;99.90
13328;DHT22;6733;51.044;3.746;2023-07-31T04:46:37;17.90;99.90
13328;DHT22;6733;51.044;3.746;2023-07-31T04:49:03;17.90;99.90
13328;DHT22;6733;51.044;3.746;2023-07-31T04:51:29;17.90;99.90
13328;DHT22;6733;51.044;3.746;2023-07-31T04:53:56;17.80;99.90
13328;DHT22;6733;51.044;3.746;2023-07-31T04:56:22;17.90;99.90
13328;DHT22;6733;51.044;3.746;2023-07-31T04:58:48;17.90;99.90
13328;DHT22;6733;51.044;3.746;2023-07-31T05:01:14;17.90;99.90
13328;DHT22;6733;51.044;3.746;2023-07-31T05:03:41;17.90;99.90
13328;DHT22;6733;51.044;3.746;2023-07-31T05:06:07;17.90;99.90
13328;DHT22;6733;51.044;3.746;2023-07-31T05:08:33;17.90;99.90
13328;DHT22;6733;51.044;3.746;2023-07-31T05:10:59;18.00;99.90
13328;DHT22;6733;51.044;3.746;2023-07-31T05:13:25;18.00;99.90
13328;DHT22;6733;51.044;3.746;2023-07-31T05:15:51;18.00;99.90
13328;DHT22;6733;51.044;3.746;2023-07-31T05:18:18;18.00;99.90
13328;DHT22;6733;51.044;3.746;2023-07-31T05:20:44;18.10;99.90
13328;DHT22;6733;51.044;3.746;2023-07-31T05:23:10;18.10;99.90
13328;DHT22;6733;51.044;3.746;2023-07-31T05:25:36;18.00;99.90
13328;DHT22;6733;51.044;3.746;2023-07-31T05:28:02;18.00;99.90
13328;DHT22;6733;51.044;3.746;2023-07-31T05:30:30;18.10;99.90
13328;DHT22;6733;51.044;3.746;2023-07-31T05:32:57;18.10;99.90
13328;DHT22;6733;51.044;3.746;2023-07-31T05:35:23;18.10;99.90
13328;DHT22;6733;51.044;3.746;2023-07-31T05:37:49;18.20;99.90
13328;DHT22;6733;51.044;3.746;2023-07-31T05:40:15;18.10;99.90
13328;DHT22;6733;51.044;3.746;2023-07-31T05:42:41;18.30;99.90
13328;DHT22;6733;51.044;3.746;2023-07-31T05:45:08;18.20;99.90
13328;DHT22;6733;51.044;3.746;2023-07-31T05:47:34;18.20;99.90
13328;DHT22;6733;51.044;3.746;2023-07-31T05:50:01;18.20;99.90
13328;DHT22;6733;51.044;3.746;2023-07-31T05:52:27;18.20;99.90
13328;DHT22;6733;51.044;3.746;2023-07-31T05:54:55;18.20;99.90
13328;DHT22;6733;51.044;3.746;2023-07-31T05:57:21;18.20;99.90
13328;DHT22;6733;51.044;3.746;2023-07-31T05:59:47;18.10;99.90
13328;DHT22;6733;51.044;3.746;2023-07-31T06:02:13;18.10;99.90
13328;DHT22;6733;51.044;3.746;2023-07-31T06:04:39;18.10;99.90
13328;DHT22;6733;51.044;3.746;2023-07-31T06:07:06;18.20;99.90
13328;DHT22;6733;51.044;3.746;2023-07-31T06:09:32;18.20;99.90
13328;DHT22;6733;51.044;3.746;2023-07-31T06:11:58;18.20;99.90
13328;DHT22;6733;51.044;3.746;2023-07-31T06:14:24;18.20;99.90
13328;DHT22;6733;51.044;3.746;2023-07-31T06:16:50;18.30;99.90
13328;DHT22;6733;51.044;3.746;2023-07-31T06:19:17;18.30;99.90
13328;DHT22;6733;51.044;3.746;2023-07-31T06:21:43;18.30;99.90
13328;DHT22;6733;51.044;3.746;2023-07-31T06:24:09;18.30;99.90
13328;DHT22;6733;51.044;3.746;2023-07-31T06:26:38;18.40;99.90
13328;DHT22;6733;51.044;3.746;2023-07-31T06:29:04;18.40;99.90
13328;DHT22;6733;51.044;3.746;2023-07-31T06:31:30;18.50;99.90
13328;DHT22;6733;51.044;3.746;2023-07-31T06:33:56;18.50;99.90
13328;DHT22;6733;51.044;3.746;2023-07-31T06:36:22;18.60;99.90
13328;DHT22;6733;51.044;3.746;2023-07-31T06:38:49;18.60;99.90
13328;DHT22;6733;51.044;3.746;2023-07-31T06:41:15;18.70;99.90
13328;DHT22;6733;51.044;3.746;2023-07-31T06:43:41;18.70;99.90
13328;DHT22;6733;51.044;3.746;2023-07-31T06:46:07;18.70;99.90
13328;DHT22;6733;51.044;3.746;2023-07-31T06:48:34;18.60;99.90
13328;DHT22;6733;51.044;3.746;2023-07-31T06:51:01;18.60;99.90
13328;DHT22;6733;51.044;3.746;2023-07-31T06:53:28;18.60;99.90
13328;DHT22;6733;51.044;3.746;2023-07-31T06:55:54;18.70;99.90
13328;DHT22;6733;51.044;3.746;2023-07-31T06:58:20;18.60;99.90
13328;DHT22;6733;51.044;3.746;2023-07-31T07:00:47;18.70;99.90
13328;DHT22;6733;51.044;3.746;2023-07-31T07:03:16;18.70;99.90
13328;DHT22;6733;51.044;3.746;2023-07-31T07:05:42;18.70;99.90
13328;DHT22;6733;51.044;3.746;2023-07-31T07:08:08;18.70;99.90
13328;DHT22;6733;51.044;3.746;2023-07-31T07:10:34;18.60;99.90
13328;DHT22;6733;51.044;3.746;2023-07-31T07:13:00;18.60;99.90
13328;DHT22;6733;51.044;3.746;2023-07-31T07:15:26;18.70;99.90
13328;DHT22;6733;51.044;3.746;2023-07-31T07:17:53;18.80;99.90
13328;DHT22;6733;51.044;3.746;2023-07-31T07:20:19;18.90;99.90
13328;DHT22;6733;51.044;3.746;2023-07-31T07:22:46;19.00;99.90
13328;DHT22;6733;51.044;3.746;2023-07-31T07:25:12;19.10;99.90
13328;DHT22;6733;51.044;3.746;2023-07-31T07:27:38;19.20;99.90
13328;DHT22;6733;51.044;3.746;2023-07-31T07:30:05;19.40;99.90
13328;DHT22;6733;51.044;3.746;2023-07-31T07:32:31;19.60;99.90
13328;DHT22;6733;51.044;3.746;2023-07-31T07:34:58;19.60;99.90
13328;DHT22;6733;51.044;3.746;2023-07-31T07:37:24;19.70;99.90
13328;DHT22;6733;51.044;3.746;2023-07-31T07:39:50;19.60;99.90
13328;DHT22;6733;51.044;3.746;2023-07-31T07:42:16;19.50;99.90
13328;DHT22;6733;51.044;3.746;2023-07-31T07:44:42;19.60;99.90
13328;DHT22;6733;51.044;3.746;2023-07-31T07:47:08;19.60;99.90
13328;DHT22;6733;51.044;3.746;2023-07-31T07:49:35;19.70;99.90
13328;DHT22;6733;51.044;3.746;2023-07-31T07:52:02;19.80;99.90
13328;DHT22;6733;51.044;3.746;2023-07-31T07:54:28;19.90;99.90
13328;DHT22;6733;51.044;3.746;2023-07-31T07:56:55;19.90;99.90
13328;DHT22;6733;51.044;3.746;2023-07-31T07:59:21;20.00;99.90
13328;DHT22;6733;51.044;3.746;2023-07-31T08:01:47;20.20;99.90
13328;DHT22;6733;51.044;3.746;2023-07-31T08:04:13;20.30;99.90
13328;DHT22;6733;51.044;3.746;2023-07-31T08:06:39;20.40;99.90
13328;DHT22;6733;51.044;3.746;2023-07-31T08:09:06;20.40;99.90
13328;DHT22;6733;51.044;3.746;2023-07-31T08:11:32;20.30;99.90
13328;DHT22;6733;51.044;3.746;2023-07-31T08:13:59;20.30;99.90
13328;DHT22;6733;51.044;3.746;2023-07-31T08:16:25;20.40;99.90
13328;DHT22;6733;51.044;3.746;2023-07-31T08:18:51;20.30;99.90
13328;DHT22;6733;51.044;3.746;2023-07-31T08:21:17;20.20;99.90
13328;DHT22;6733;51.044;3.746;2023-07-31T08:23:43;20.40;99.90
13328;DHT22;6733;51.044;3.746;2023-07-31T08:26:16;20.50;99.90
13328;DHT22;6733;51.044;3.746;2023-07-31T08:28:43;20.50;99.90
13328;DHT22;6733;51.044;3.746;2023-07-31T08:31:09;20.40;99.90
13328;DHT22;6733;51.044;3.746;2023-07-31T08:33:36;20.30;99.90
13328;DHT22;6733;51.044;3.746;2023-07-31T08:36:02;20.30;99.90
13328;DHT22;6733;51.044;3.746;2023-07-31T08:38:28;20.40;99.90
13328;DHT22;6733;51.044;3.746;2023-07-31T08:40:58;20.50;99.90
13328;DHT22;6733;51.044;3.746;2023-07-31T08:43:27;20.70;99.90
13328;DHT22;6733;51.044;3.746;2023-07-31T08:45:53;20.70;99.90
13328;DHT22;6733;51.044;3.746;2023-07-31T08:48:21;21.10;99.90
13328;DHT22;6733;51.044;3.746;2023-07-31T08:50:48;21.10;99.90
13328;DHT22;6733;51.044;3.746;2023-07-31T08:53:14;20.90;99.90
13328;DHT22;6733;51.044;3.746;2023-07-31T08:55:40;21.00;99.90
13328;DHT22;6733;51.044;3.746;2023-07-31T08:58:07;21.10;99.90
13328;DHT22;6733;51.044;3.746;2023-07-31T09:00:33;20.90;99.90
13328;DHT22;6733;51.044;3.746;2023-07-31T09:03:03;20.70;99.90
13328;DHT22;6733;51.044;3.746;2023-07-31T09:05:34;20.60;99.90
13328;DHT22;6733;51.044;3.746;2023-07-31T09:08:01;20.50;99.90
13328;DHT22;6733;51.044;3.746;2023-07-31T09:10:27;20.60;99.90
13328;DHT22;6733;51.044;3.746;2023-07-31T09:12:53;20.70;99.90
13328;DHT22;6733;51.044;3.746;2023-07-31T09:15:20;20.90;99.90
13328;DHT22;6733;51.044;3.746;2023-07-31T09:17:47;21.10;99.90
13328;DHT22;6733;51.044;3.746;2023-07-31T09:20:20;21.00;99.90
13328;DHT22;6733;51.044;3.746;2023-07-31T09:22:47;21.00;99.90
13328;DHT22;6733;51.044;3.746;2023-07-31T09:25:24;21.00;99.90
13328;DHT22;6733;51.044;3.746;2023-07-31T09:27:54;21.00;99.90
13328;DHT22;6733;51.044;3.746;2023-07-31T09:30:21;21.00;99.90
13328;DHT22;6733;51.044;3.746;2023-07-31T09:32:48;21.10;99.90
13328;DHT22;6733;51.044;3.746;2023-07-31T09:35:18;20.90;99.90
13328;DHT22;6733;51.044;3.746;2023-07-31T09:37:48;20.60;99.90
13328;DHT22;6733;51.044;3.746;2023-07-31T09:40:34;20.50;99.90
13328;DHT22;6733;51.044;3.746;2023-07-31T09:43:02;20.60;99.90
13328;DHT22;6733;51.044;3.746;2023-07-31T09:45:29;20.60;99.90
13328;DHT22;6733;51.044;3.746;2023-07-31T09:47:56;20.40;99.90
13328;DHT22;6733;51.044;3.746;2023-07-31T09:50:23;20.50;99.90
13328;DHT22;6733;51.044;3.746;2023-07-31T09:52:50;20.40;99.90
13328;DHT22;6733;51.044;3.746;2023-07-31T09:55:16;20.50;99.90
13328;DHT22;6733;51.044;3.746;2023-07-31T09:57:44;20.60;99.90
13328;DHT22;6733;51.044;3.746;2023-07-31T10:00:11;20.80;99.90
13328;DHT22;6733;51.044;3.746;2023-07-31T10:02:37;21.00;99.90
13328;DHT22;6733;51.044;3.746;2023-07-31T10:05:04;21.10;99.90
13328;DHT22;6733;51.044;3.746;2023-07-31T10:07:30;21.00;99.90
13328;DHT22;6733;51.044;3.746;2023-07-31T10:09:57;21.10;99.90
13328;DHT22;6733;51.044;3.746;2023-07-31T10:12:25;21.20;99.90
13328;DHT22;6733;51.044;3.746;2023-07-31T10:14:51;21.20;99.90
13328;DHT22;6733;51.044;3.746;2023-07-31T10:17:19;21.30;99.90
13328;DHT22;6733;51.044;3.746;2023-07-31T10:19:46;21.30;99.90
13328;DHT22;6733;51.044;3.746;2023-07-31T10:22:14;21.50;99.90
13328;DHT22;6733;51.044;3.746;2023-07-31T10:24:40;21.40;99.90
13328;DHT22;6733;51.044;3.746;2023-07-31T10:27:08;21.30;99.90
13328;DHT22;6733;51.044;3.746;2023-07-31T10:29:36;21.10;99.90
13328;DHT22;6733;51.044;3.746;2023-07-31T10:32:02;20.70;99.90
13328;DHT22;6733;51.044;3.746;2023-07-31T10:34:33;20.80;99.90
13328;DHT22;6733;51.044;3.746;2023-07-31T10:39:44;21.10;99.90
13328;DHT22;6733;51.044;3.746;2023-07-31T10:42:20;21.20;99.90
13328;DHT22;6733;51.044;3.746;2023-07-31T10:44:54;21.10;99.90
13328;DHT22;6733;51.044;3.746;2023-07-31T10:47:21;21.20;99.90
13328;DHT22;6733;51.044;3.746;2023-07-31T10:49:47;21.40;99.90
13328;DHT22;6733;51.044;3.746;2023-07-31T10:52:14;21.60;99.90
13328;DHT22;6733;51.044;3.746;2023-07-31T10:54:45;21.70;99.90
13328;DHT22;6733;51.044;3.746;2023-07-31T10:57:21;21.80;99.90
13328;DHT22;6733;51.044;3.746;2023-07-31T10:59:48;21.90;99.90
13328;DHT22;6733;51.044;3.746;2023-07-31T11:02:24;22.00;99.90
13328;DHT22;6733;51.044;3.746;2023-07-31T11:05:08;22.10;99.90
13328;DHT22;6733;51.044;3.746;2023-07-31T11:07:49;22.20;99.90
13328;DHT22;6733;51.044;3.746;2023-07-31T11:10:17;22.40;99.90
13328;DHT22;6733;51.044;3.746;2023-07-31T11:12:45;22.30;99.90
13328;DHT22;6733;51.044;3.746;2023-07-31T11:15:12;22.30;99.90
13328;DHT22;6733;51.044;3.746;2023-07-31T11:17:39;22.30;99.90
13328;DHT22;6733;51.044;3.746;2023-07-31T11:20:06;22.50;99.90
13328;DHT22;6733;51.044;3.746;2023-07-31T11:22:36;22.60;99.90
13328;DHT22;6733;51.044;3.746;2023-07-31T11:25:03;22.60;99.90
13328;DHT22;6733;51.044;3.746;2023-07-31T11:27:29;22.50;99.90
13328;DHT22;6733;51.044;3.746;2023-07-31T11:30:03;22.40;99.90
13328;DHT22;6733;51.044;3.746;2023-07-31T11:32:29;22.30;99.90
13328;DHT22;6733;51.044;3.746;2023-07-31T11:34:55;22.30;99.90
13328;DHT22;6733;51.044;3.746;2023-07-31T11:37:22;22.20;99.90
13328;DHT22;6733;51.044;3.746;2023-07-31T11:40:00;22.20;99.90
13328;DHT22;6733;51.044;3.746;2023-07-31T11:42:27;22.20;99.90
13328;DHT22;6733;51.044;3.746;2023-07-31T11:44:53;22.10;99.90
13328;DHT22;6733;51.044;3.746;2023-07-31T11:47:19;22.30;99.90
13328;DHT22;6733;51.044;3.746;2023-07-31T11:49:45;22.50;99.90
13328;DHT22;6733;51.044;3.746;2023-07-31T11:52:12;22.40;99.90
13328;DHT22;6733;51.044;3.746;2023-07-31T11:54:40;22.40;99.90
13328;DHT22;6733;51.044;3.746;2023-07-31T11:57:07;22.40;99.90
13328;DHT22;6733;51.044;3.746;2023-07-31T11:59:34;22.40;99.90
13328;DHT22;6733;51.044;3.746;2023-07-31T12:02:00;22.30;99.90
13328;DHT22;6733;51.044;3.746;2023-07-31T12:04:27;22.20;99.90
13328;DHT22;6733;51.044;3.746;2023-07-31T12:06:53;22.00;99.90
13328;DHT22;6733;51.044;3.746;2023-07-31T12:09:19;22.10;99.90
13328;DHT22;6733;51.044;3.746;2023-07-31T12:11:46;22.20;99.90
13328;DHT22;6733;51.044;3.746;2023-07-31T12:14:25;22.20;99.90
13328;DHT22;6733;51.044;3.746;2023-07-31T12:16:55;22.10;99.90
13328;DHT22;6733;51.044;3.746;2023-07-31T12:19:22;22.00;99.90
13328;DHT22;6733;51.044;3.746;2023-07-31T12:21:49;22.00;99.90
13328;DHT22;6733;51.044;3.746;2023-07-31T12:24:15;21.90;99.90
13328;DHT22;6733;51.044;3.746;2023-07-31T12:26:45;21.90;99.90
13328;DHT22;6733;51.044;3.746;2023-07-31T12:29:12;22.00;99.90
13328;DHT22;6733;51.044;3.746;2023-07-31T12:31:40;21.70;99.90
13328;DHT22;6733;51.044;3.746;2023-07-31T12:34:16;21.60;99.90
13328;DHT22;6733;51.044;3.746;2023-07-31T12:36:43;21.40;99.90
13328;DHT22;6733;51.044;3.746;2023-07-31T12:39:10;21.30;99.90
13328;DHT22;6733;51.044;3.746;2023-07-31T12:41:36;21.20;99.90
13328;DHT22;6733;51.044;3.746;2023-07-31T12:44:02;21.30;99.90
13328;DHT22;6733;51.044;3.746;2023-07-31T12:46:29;21.20;99.90
13328;DHT22;6733;51.044;3.746;2023-07-31T12:48:55;21.00;99.90
13328;DHT22;6733;51.044;3.746;2023-07-31T12:51:21;20.90;99.90
13328;DHT22;6733;51.044;3.746;2023-07-31T12:53:47;20.80;99.90
13328;DHT22;6733;51.044;3.746;2023-07-31T12:56:13;20.60;99.90
13328;DHT22;6733;51.044;3.746;2023-07-31T12:58:40;20.40;99.90
13328;DHT22;6733;51.044;3.746;2023-07-31T13:01:06;20.40;99.90
13328;DHT22;6733;51.044;3.746;2023-07-31T13:03:32;20.30;99.90
13328;DHT22;6733;51.044;3.746;2023-07-31T13:05:58;20.30;99.90
13328;DHT22;6733;51.044;3.746;2023-07-31T13:08:24;20.30;99.90
13328;DHT22;6733;51.044;3.746;2023-07-31T13:10:50;20.20;99.90
13328;DHT22;6733;51.044;3.746;2023-07-31T13:13:16;20.20;99.90
13328;DHT22;6733;51.044;3.746;2023-07-31T13:15:43;20.20;99.90
13328;DHT22;6733;51.044;3.746;2023-07-31T13:18:09;20.20;99.90
13328;DHT22;6733;51.044;3.746;2023-07-31T13:20:36;20.10;99.90
13328;DHT22;6733;51.044;3.746;2023-07-31T13:23:02;20.10;99.90
13328;DHT22;6733;51.044;3.746;2023-07-31T13:25:28;20.20;99.90
13328;DHT22;6733;51.044;3.746;2023-07-31T13:27:55;20.10;99.90
13328;DHT22;6733;51.044;3.746;2023-07-31T13:30:21;20.10;99.90
13328;DHT22;6733;51.044;3.746;2023-07-31T13:32:47;20.00;99.90
13328;DHT22;6733;51.044;3.746;2023-07-31T13:35:13;20.00;99.90
13328;DHT22;6733;51.044;3.746;2023-07-31T13:37:39;19.80;99.90
13328;DHT22;6733;51.044;3.746;2023-07-31T13:40:06;19.80;99.90
13328;DHT22;6733;51.044;3.746;2023-07-31T13:42:33;19.80;99.90
13328;DHT22;6733;51.044;3.746;2023-07-31T13:44:59;19.70;99.90
13328;DHT22;6733;51.044;3.746;2023-07-31T13:47:25;19.80;99.90
13328;DHT22;6733;51.044;3.746;2023-07-31T13:49:51;19.80;99.90
13328;DHT22;6733;51.044;3.746;2023-07-31T13:52:17;19.80;99.90
13328;DHT22;6733;51.044;3.746;2023-07-31T13:54:43;19.90;99.90
13328;DHT22;6733;51.044;3.746;2023-07-31T13:57:09;19.90;99.90
13328;DHT22;6733;51.044;3.746;2023-07-31T13:59:35;20.00;99.90
13328;DHT22;6733;51.044;3.746;2023-07-31T14:02:02;20.00;99.90
13328;DHT22;6733;51.044;3.746;2023-07-31T14:04:28;20.00;99.90
13328;DHT22;6733;51.044;3.746;2023-07-31T14:06:55;19.90;99.90
13328;DHT22;6733;51.044;3.746;2023-07-31T14:09:21;19.90;99.90
13328;DHT22;6733;51.044;3.746;2023-07-31T14:11:47;19.90;99.90
13328;DHT22;6733;51.044;3.746;2023-07-31T14:14:14;19.90;99.90
13328;DHT22;6733;51.044;3.746;2023-07-31T14:16:40;20.00;99.90
13328;DHT22;6733;51.044;3.746;2023-07-31T14:19:06;20.00;99.90
13328;DHT22;6733;51.044;3.746;2023-07-31T14:21:34;20.00;99.90
13328;DHT22;6733;51.044;3.746;2023-07-31T14:24:00;20.10;99.90
13328;DHT22;6733;51.044;3.746;2023-07-31T14:26:26;20.10;99.90
13328;DHT22;6733;51.044;3.746;2023-07-31T14:28:52;20.00;99.90
13328;DHT22;6733;51.044;3.746;2023-07-31T14:31:18;20.00;99.90
13328;DHT22;6733;51.044;3.746;2023-07-31T14:33:44;20.10;99.90
13328;DHT22;6733;51.044;3.746;2023-07-31T14:36:11;20.00;99.90
13328;DHT22;6733;51.044;3.746;2023-07-31T14:38:37;20.00;99.90
13328;DHT22;6733;51.044;3.746;2023-07-31T14:41:03;19.90;99.90
13328;DHT22;6733;51.044;3.746;2023-07-31T14:43:29;19.90;99.90
13328;DHT22;6733;51.044;3.746;2023-07-31T14:45:55;20.00;99.90
13328;DHT22;6733;51.044;3.746;2023-07-31T14:48:26;20.00;99.90
13328;DHT22;6733;51.044;3.746;2023-07-31T14:50:52;19.90;99.90
13328;DHT22;6733;51.044;3.746;2023-07-31T14:53:19;19.90;99.90
13328;DHT22;6733;51.044;3.746;2023-07-31T14:55:45;19.90;99.90
13328;DHT22;6733;51.044;3.746;2023-07-31T14:58:11;20.00;99.90
13328;DHT22;6733;51.044;3.746;2023-07-31T15:00:39;19.90;99.90
13328;DHT22;6733;51.044;3.746;2023-07-31T15:03:06;19.90;99.90
13328;DHT22;6733;51.044;3.746;2023-07-31T15:05:32;19.90;99.90
13328;DHT22;6733;51.044;3.746;2023-07-31T15:07:58;19.90;99.90
13328;DHT22;6733;51.044;3.746;2023-07-31T15:10:24;19.80;99.90
13328;DHT22;6733;51.044;3.746;2023-07-31T15:12:50;19.80;99.90
13328;DHT22;6733;51.044;3.746;2023-07-31T15:15:16;19.80;99.90
13328;DHT22;6733;51.044;3.746;2023-07-31T15:17:42;19.80;99.90
13328;DHT22;6733;51.044;3.746;2023-07-31T15:20:09;19.70;99.90
13328;DHT22;6733;51.044;3.746;2023-07-31T15:22:35;19.80;99.90
13328;DHT22;6733;51.044;3.746;2023-07-31T15:25:02;19.80;99.90
13328;DHT22;6733;51.044;3.746;2023-07-31T15:27:28;19.80;99.90
13328;DHT22;6733;51.044;3.746;2023-07-31T15:29:54;19.80;99.90
13328;DHT22;6733;51.044;3.746;2023-07-31T15:32:21;19.70;99.90
13328;DHT22;6733;51.044;3.746;2023-07-31T15:34:47;19.80;99.90
13328;DHT22;6733;51.044;3.746;2023-07-31T15:37:13;19.80;99.90
13328;DHT22;6733;51.044;3.746;2023-07-31T15:39:40;19.80;99.90
13328;DHT22;6733;51.044;3.746;2023-07-31T15:42:06;19.90;99.90
13328;DHT22;6733;51.044;3.746;2023-07-31T15:44:34;19.90;99.90
13328;DHT22;6733;51.044;3.746;2023-07-31T15:47:01;19.90;99.90
13328;DHT22;6733;51.044;3.746;2023-07-31T15:49:27;20.00;99.90
13328;DHT22;6733;51.044;3.746;2023-07-31T15:51:54;20.00;99.90
13328;DHT22;6733;51.044;3.746;2023-07-31T15:54:20;19.90;99.90